サマーラ の空港の天気 - METARとTAF

クルモフ国際空港 ( UWWW / KUF ) - ロシア サマーラ
飛行場実況気象(Metar)
観測時間08/04 23:00 MSK (08/04 20:00 UTC)
風向・風速北 5m/s
視程10km以上
天気現象
全天の4割程度の雲 雲底高度 1010m
気温16℃
湿度88%
気圧1014hPa
METARUWWW 042000Z 36005MPS 9999 SCT033 16/14 Q1014 R33/190055 NOSIG RMK QFE749/0999
過去の天気等 Google飛行場航空写真 Wunderground天気予報

過去48時間のMETAR

飛行場予報(TAF)
発表時間: 8/04 19:51 MSK (8/04 16:51 UTC)
予報対象時間: 4日21時 MSK ~ 5日21時 MSK
風向・風速北北東 7m/s
視程6000m
全天の8割程度の雲 雲底高度 490m
4日21時 MSK ~ 5日9時 MSK に一時的に
風向・風速北東 8m/s 瞬間風速 15m/s
視程3000m
天気現象弱いしゅう雨
全天の8割程度の雲 雲底高度 210m
全天の8割程度の積乱雲 雲底高度 340m
5日9時 MSK ~ 5日19時 MSK に一時的に
風向・風速北東 7m/s 瞬間風速 14m/s
TAF UWWW 041651Z 0418/0518 02007MPS 6000 BKN016 TX27/0511Z TN16/0501Z
TEMPO 0418/0506 04008G15MPS 3000 -SHRA BKN007 BKN011CB
TEMPO 0506/0516 04007G14MPS